Time;durP1;ratioP1;P1;durP2;ratioP2;P2;SDS_P1;SDS_P2;PMS_P1;PMS_P2;Temp;Humidity;BMP_temperature;BMP_pressure;BME280_temperature;BME280_humidity;BME280_pressure;Samples;Min_cycle;Max_cycle;Signal;HPM_P1;HPM_P2
2023/12/12 00:00:47;;;;;;;768.72;79.90;;;;;;;;;;4837876;29;20047;-90
2023/12/12 00:03:14;;;;;;;701.55;71.72;;;;;;;;;;4837235;29;21306;-91
2023/12/12 00:05:41;;;;;;;746.20;78.65;;;;;;;;;;4837201;29;20159;-91
2023/12/12 00:08:08;;;;;;;709.10;75.93;;;;;;;;;;4840409;29;20066;-90
2023/12/12 00:10:34;;;;;;;674.33;70.03;;;;;;;;;;4841636;29;20055;-91
2023/12/12 00:13:01;;;;;;;687.55;70.88;;;;;;;;;;4841745;29;20719;-90
2023/12/12 00:15:28;;;;;;;718.95;74.07;;;;;;;;;;4839587;29;20067;-90
2023/12/12 00:17:54;;;;;;;711.20;72.70;;;;;;;;;;4835919;29;20638;-90
2023/12/12 00:20:21;;;;;;;679.58;70.63;;;;;;;;;;4838428;29;20940;-90
2023/12/12 00:22:47;;;;;;;677.17;69.75;;;;;;;;;;4838742;29;20051;-90
2023/12/12 00:25:14;;;;;;;632.10;63.75;;;;;;;;;;4841004;29;20055;-90
2023/12/12 00:27:41;;;;;;;681.63;70.03;;;;;;;;;;4840592;29;20953;-91
2023/12/12 00:30:08;;;;;;;720.28;73.10;;;;;;;;;;4838062;29;20036;-90
2023/12/12 00:32:34;;;;;;;686.90;70.90;;;;;;;;;;4837919;29;20047;-89
2023/12/12 00:35:01;;;;;;;689.72;71.18;;;;;;;;;;4841900;29;20142;-90
2023/12/12 00:37:28;;;;;;;694.05;72.40;;;;;;;;;;4840846;29;20044;-90
2023/12/12 00:39:55;;;;;;;698.05;72.00;;;;;;;;;;4838603;29;20179;-90
2023/12/12 00:42:23;;;;;;;745.10;77.63;;;;;;;;;;4835263;29;20914;-90
2023/12/12 00:48:44;;;;;;;659.63;67.33;;;;;;;;;;4842675;29;20127;-91
2023/12/12 00:51:11;;;;;;;685.05;70.57;;;;;;;;;;4852355;29;20547;-90
2023/12/12 00:53:38;;;;;;;699.25;73.38;;;;;;;;;;4851392;28;20883;-90
2023/12/12 00:56:04;;;;;;;701.08;72.50;;;;;;;;;;4849467;29;20035;-91
2023/12/12 00:58:31;;;;;;;693.28;72.03;;;;;;;;;;4859527;29;20058;-91
2023/12/12 01:00:57;;;;;;;728.38;75.57;;;;;;;;;;4847997;29;20103;-90
2023/12/12 01:03:24;;;;;;;661.92;69.18;;;;;;;;;;4848928;29;20058;-90
2023/12/12 01:05:51;;;;;;;690.90;71.03;;;;;;;;;;4853073;29;20894;-90
2023/12/12 01:08:18;;;;;;;727.33;77.72;;;;;;;;;;4847317;29;20566;-89
2023/12/12 01:10:44;;;;;;;701.45;72.50;;;;;;;;;;4847962;29;20047;-91
2023/12/12 01:13:11;;;;;;;737.63;78.55;;;;;;;;;;4845004;29;20044;-90
2023/12/12 01:15:37;;;;;;;756.08;79.60;;;;;;;;;;4846140;29;20046;-90
2023/12/12 01:18:04;;;;;;;760.70;81.80;;;;;;;;;;4840624;29;21383;-90
2023/12/12 01:20:31;;;;;;;755.00;80.63;;;;;;;;;;4853415;29;20043;-90
2023/12/12 01:22:58;;;;;;;735.03;78.68;;;;;;;;;;4840521;29;20036;-90
2023/12/12 01:25:24;;;;;;;706.38;74.45;;;;;;;;;;4850672;29;20059;-90
2023/12/12 01:27:51;;;;;;;708.13;75.78;;;;;;;;;;4846562;29;20035;-89
2023/12/12 01:30:18;;;;;;;689.78;73.28;;;;;;;;;;4855917;29;20040;-91
2023/12/12 01:32:44;;;;;;;700.05;72.88;;;;;;;;;;4850805;29;20922;-90
2023/12/12 01:35:11;;;;;;;700.45;74.65;;;;;;;;;;4854775;29;20940;-91
2023/12/12 01:37:38;;;;;;;654.88;69.22;;;;;;;;;;4856701;28;20027;-90
2023/12/12 01:40:05;;;;;;;575.17;60.50;;;;;;;;;;4856574;29;20102;-90
2023/12/12 01:42:31;;;;;;;684.03;72.95;;;;;;;;;;4864234;29;20046;-90
2023/12/12 01:44:58;;;;;;;693.45;74.40;;;;;;;;;;4852983;29;20104;-90
2023/12/12 01:47:26;;;;;;;694.63;74.47;;;;;;;;;;4853441;29;20042;-90
2023/12/12 01:49:52;;;;;;;593.92;63.05;;;;;;;;;;4856376;29;20142;-90
2023/12/12 01:52:21;;;;;;;621.55;65.57;;;;;;;;;;4864542;29;20035;-90
2023/12/12 01:54:47;;;;;;;710.08;75.55;;;;;;;;;;4854303;29;20837;-90
2023/12/12 01:57:16;;;;;;;690.55;72.47;;;;;;;;;;4857504;29;20032;-90
2023/12/12 01:59:44;;;;;;;625.70;64.65;;;;;;;;;;4862926;29;21222;-90
2023/12/12 02:40:55;;;;;;;38.88;14.82;;;;;;;;;;882463;23;20440;-95
2023/12/12 02:47:52;;;;;;;179.88;24.20;;;;;;;;;;4928085;29;20072;-95
2023/12/12 05:27:41;;;;;;;168.82;27.63;;;;;;;;;;4664311;30;20157;-95
2023/12/12 05:35:07;;;;;;;57.10;19.60;;;;;;;;;;4627540;30;20051;-95
2023/12/12 05:37:37;;;;;;;132.82;23.85;;;;;;;;;;4622344;30;20051;-95
2023/12/12 05:40:06;;;;;;;210.38;30.80;;;;;;;;;;4576055;31;20600;-94
2023/12/12 05:42:32;;;;;;;478.15;46.78;;;;;;;;;;4582130;30;20090;-94
2023/12/12 05:44:57;;;;;;;388.02;44.67;;;;;;;;;;4598937;30;20047;-94
2023/12/12 05:47:25;;;;;;;308.95;39.10;;;;;;;;;;4637283;30;20056;-94
2023/12/12 05:49:51;;;;;;;472.75;52.17;;;;;;;;;;4673040;30;20053;-94
2023/12/12 05:52:18;;;;;;;504.48;56.72;;;;;;;;;;4725560;29;20065;-91
2023/12/12 05:54:46;;;;;;;590.13;66.72;;;;;;;;;;4753374;29;20058;-92
2023/12/12 05:57:12;;;;;;;208.15;32.55;;;;;;;;;;4738220;29;20046;-92
2023/12/12 05:59:39;;;;;;;352.58;41.47;;;;;;;;;;4758163;29;20057;-95
2023/12/12 06:02:07;;;;;;;242.35;33.03;;;;;;;;;;4720536;29;20954;-93
2023/12/12 06:04:38;;;;;;;108.57;24.25;;;;;;;;;;4742098;29;20205;-94
2023/12/12 06:07:05;;;;;;;337.05;41.17;;;;;;;;;;4763175;29;20593;-92
2023/12/12 06:09:34;;;;;;;152.00;27.55;;;;;;;;;;4763046;29;20925;-94
2023/12/12 06:12:06;;;;;;;363.52;42.85;;;;;;;;;;4858866;29;20755;-94
2023/12/12 06:14:35;;;;;;;434.52;51.85;;;;;;;;;;4808591;29;20143;-94
2023/12/12 06:17:05;;;;;;;296.70;38.00;;;;;;;;;;4852870;29;20068;-94
2023/12/12 06:19:34;;;;;;;135.13;26.20;;;;;;;;;;4847550;29;20068;-94
2023/12/12 06:22:02;;;;;;;237.30;34.83;;;;;;;;;;4835317;29;20947;-94
2023/12/12 06:24:32;;;;;;;294.48;35.70;;;;;;;;;;4863078;29;20040;-93
2023/12/12 06:26:59;;;;;;;591.78;66.88;;;;;;;;;;4833553;29;20139;-93
2023/12/12 06:29:26;;;;;;;166.48;27.75;;;;;;;;;;4863591;29;20052;-94
2023/12/12 06:31:56;;;;;;;93.13;21.90;;;;;;;;;;4866446;29;20462;-94
2023/12/12 06:34:25;;;;;;;194.50;30.00;;;;;;;;;;4866371;29;20032;-94
2023/12/12 06:36:54;;;;;;;144.05;26.83;;;;;;;;;;4874705;29;20127;-95
2023/12/12 06:39:25;;;;;;;128.73;27.67;;;;;;;;;;4887475;29;20036;-95
2023/12/12 06:42:11;;;;;;;354.13;41.47;;;;;;;;;;4861072;29;20036;-93
2023/12/12 06:44:38;;;;;;;575.33;65.75;;;;;;;;;;4819173;29;20059;-93
2023/12/12 06:47:05;;;;;;;580.40;66.40;;;;;;;;;;4828518;29;20084;-93
2023/12/12 06:49:33;;;;;;;611.05;68.88;;;;;;;;;;4813908;29;20044;-93
2023/12/12 06:52:01;;;;;;;694.38;78.55;;;;;;;;;;4809879;29;20045;-92
2023/12/12 06:54:28;;;;;;;751.42;86.15;;;;;;;;;;4794102;29;20053;-92
2023/12/12 06:56:55;;;;;;;565.67;62.33;;;;;;;;;;4806907;29;20781;-92
2023/12/12 06:59:22;;;;;;;649.08;72.10;;;;;;;;;;4820002;29;20040;-93
2023/12/12 07:01:51;;;;;;;677.50;76.28;;;;;;;;;;4816177;29;20973;-92
2023/12/12 07:04:18;;;;;;;720.70;83.60;;;;;;;;;;4823667;29;20599;-92
2023/12/12 07:06:48;;;;;;;398.15;44.83;;;;;;;;;;4856908;29;20051;-95
2023/12/12 07:09:18;;;;;;;300.45;41.22;;;;;;;;;;4864808;29;20044;-96
2023/12/12 07:11:45;;;;;;;115.78;24.38;;;;;;;;;;4885573;29;20048;-95
2023/12/12 07:14:36;;;;;;;118.18;23.63;;;;;;;;;;4886865;29;20112;-94
2023/12/12 07:17:15;;;;;;;180.13;29.35;;;;;;;;;;4883357;29;20032;-94
2023/12/12 07:19:43;;;;;;;155.50;28.45;;;;;;;;;;4891838;29;20032;-94
2023/12/12 07:22:10;;;;;;;203.07;30.35;;;;;;;;;;4903994;29;20028;-94
2023/12/12 07:24:40;;;;;;;150.82;31.70;;;;;;;;;;4873881;29;20070;-95
2023/12/12 07:27:11;;;;;;;120.82;28.05;;;;;;;;;;4855805;29;20054;-94
2023/12/12 07:29:38;;;;;;;135.20;31.70;;;;;;;;;;4871739;29;20799;-94
2023/12/12 07:32:07;;;;;;;145.57;30.80;;;;;;;;;;4872697;29;20098;-94
2023/12/12 07:34:35;;;;;;;119.65;28.15;;;;;;;;;;4869807;29;20169;-94
2023/12/12 07:37:02;;;;;;;189.52;33.20;;;;;;;;;;4857175;29;20036;-93
2023/12/12 07:39:30;;;;;;;178.18;30.35;;;;;;;;;;4868143;29;20076;-94
2023/12/12 07:41:57;;;;;;;165.18;30.85;;;;;;;;;;4873275;29;20051;-94
2023/12/12 07:44:27;;;;;;;181.40;38.88;;;;;;;;;;4854068;29;20047;-94
2023/12/12 07:46:55;;;;;;;200.98;39.88;;;;;;;;;;4860656;29;20785;-95
2023/12/12 07:49:25;;;;;;;218.85;39.85;;;;;;;;;;4866617;29;20934;-94
2023/12/12 07:51:54;;;;;;;191.60;37.70;;;;;;;;;;4860632;29;20120;-94
2023/12/12 07:54:22;;;;;;;168.18;34.85;;;;;;;;;;4867399;29;20299;-94
2023/12/12 07:56:50;;;;;;;118.20;26.67;;;;;;;;;;4876297;29;20055;-95
2023/12/12 07:59:18;;;;;;;144.65;29.42;;;;;;;;;;4870323;29;20076;-94
2023/12/12 08:01:47;;;;;;;135.10;27.50;;;;;;;;;;4859087;29;20167;-94
2023/12/12 08:04:15;;;;;;;120.20;26.20;;;;;;;;;;4877614;29;20132;-94
2023/12/12 08:06:42;;;;;;;96.90;22.85;;;;;;;;;;4881234;29;20048;-94
2023/12/12 08:09:09;;;;;;;143.55;25.65;;;;;;;;;;4870231;29;20044;-94
2023/12/12 08:11:36;;;;;;;149.45;26.60;;;;;;;;;;4845429;29;20053;-94
2023/12/12 08:14:03;;;;;;;144.95;25.52;;;;;;;;;;4863552;29;20059;-93
2023/12/12 08:16:32;;;;;;;193.10;29.85;;;;;;;;;;4851005;29;20044;-94
2023/12/12 08:19:00;;;;;;;193.55;28.58;;;;;;;;;;4840056;29;20056;-94
2023/12/12 08:21:28;;;;;;;256.27;32.60;;;;;;;;;;4855425;29;20120;-94
2023/12/12 08:23:55;;;;;;;216.38;28.55;;;;;;;;;;4860116;29;20095;-94
2023/12/12 08:26:22;;;;;;;153.10;24.58;;;;;;;;;;4841033;29;20547;-93
2023/12/12 08:28:49;;;;;;;213.80;27.55;;;;;;;;;;4846387;29;20044;-93
2023/12/12 08:31:18;;;;;;;219.63;27.15;;;;;;;;;;4862545;29;20044;-93
2023/12/12 08:33:45;;;;;;;148.13;22.83;;;;;;;;;;4864003;29;20055;-93
2023/12/12 08:36:12;;;;;;;172.30;24.85;;;;;;;;;;4854684;29;20047;-94
2023/12/12 08:38:39;;;;;;;192.60;24.92;;;;;;;;;;4849360;29;20036;-93
2023/12/12 08:41:05;;;;;;;187.05;24.55;;;;;;;;;;4847305;29;20041;-93
2023/12/12 08:43:39;;;;;;;220.85;28.20;;;;;;;;;;4832709;29;20052;-94
2023/12/12 08:46:06;;;;;;;105.97;18.83;;;;;;;;;;4860651;29;20032;-93
2023/12/12 08:48:35;;;;;;;203.55;27.25;;;;;;;;;;4832687;29;20041;-94
2023/12/12 08:51:03;;;;;;;207.27;27.23;;;;;;;;;;4842541;29;20045;-94
2023/12/12 08:53:30;;;;;;;130.00;21.02;;;;;;;;;;4839390;29;20061;-93
2023/12/12 08:55:57;;;;;;;298.63;35.00;;;;;;;;;;4835854;29;20056;-93
2023/12/12 08:58:25;;;;;;;343.90;37.17;;;;;;;;;;4838970;29;20041;-93
2023/12/12 09:00:53;;;;;;;317.80;34.53;;;;;;;;;;4832055;29;20104;-93
2023/12/12 09:03:20;;;;;;;374.95;40.63;;;;;;;;;;4824176;29;20045;-93
2023/12/12 09:05:47;;;;;;;267.27;32.05;;;;;;;;;;4834669;29;20041;-93
2023/12/12 09:08:13;;;;;;;316.45;38.13;;;;;;;;;;4847747;29;20045;-93
2023/12/12 09:10:40;;;;;;;230.27;34.55;;;;;;;;;;4835228;29;20117;-93
2023/12/12 09:13:07;;;;;;;379.20;53.67;;;;;;;;;;4829824;29;20060;-92
2023/12/12 09:15:34;;;;;;;460.30;56.28;;;;;;;;;;4808984;29;20049;-93
2023/12/12 09:18:01;;;;;;;265.20;39.42;;;;;;;;;;4832356;29;20544;-93
2023/12/12 09:20:45;;;;;;;367.80;44.55;;;;;;;;;;4808021;29;20163;-93
2023/12/12 09:23:13;;;;;;;296.08;37.10;;;;;;;;;;4831405;29;20755;-93
2023/12/12 09:25:40;;;;;;;306.63;35.58;;;;;;;;;;4818699;29;20033;-93
2023/12/12 09:28:06;;;;;;;260.60;32.60;;;;;;;;;;4827200;29;20975;-94
2023/12/12 09:30:33;;;;;;;344.92;39.35;;;;;;;;;;4818392;29;20244;-93
2023/12/12 09:33:00;;;;;;;363.08;41.38;;;;;;;;;;4831123;29;20067;-94
2023/12/12 09:35:27;;;;;;;419.00;47.60;;;;;;;;;;4807750;29;20044;-93
2023/12/12 09:37:54;;;;;;;396.40;43.53;;;;;;;;;;4839725;29;21007;-93
2023/12/12 09:40:21;;;;;;;348.13;40.45;;;;;;;;;;4829332;29;20222;-93
2023/12/12 09:42:48;;;;;;;350.33;42.33;;;;;;;;;;4844659;29;20036;-93
2023/12/12 09:45:16;;;;;;;337.08;38.85;;;;;;;;;;4835330;29;20056;-93
2023/12/12 09:47:44;;;;;;;269.58;34.22;;;;;;;;;;4854818;29;20204;-93
2023/12/12 09:50:11;;;;;;;357.88;41.28;;;;;;;;;;4838396;29;20040;-93
2023/12/12 09:52:38;;;;;;;285.70;33.63;;;;;;;;;;4842012;29;20060;-93
2023/12/12 09:55:06;;;;;;;366.70;38.10;;;;;;;;;;4834820;29;20040;-93
2023/12/12 09:57:32;;;;;;;230.60;26.80;;;;;;;;;;4853103;29;20765;-93
2023/12/12 10:00:00;;;;;;;472.08;47.28;;;;;;;;;;4842987;29;20051;-92
2023/12/12 10:02:36;;;;;;;469.73;47.00;;;;;;;;;;4833309;29;20044;-93
2023/12/12 10:05:09;;;;;;;557.70;55.15;;;;;;;;;;4817684;29;20032;-93
2023/12/12 10:07:36;;;;;;;;;;;;;;;;;;4802658;29;20859;-93
2023/12/12 10:10:07;;;;;;;444.60;44.92;;;;;;;;;;4787621;29;20218;-93
2023/12/12 10:12:35;;;;;;;480.60;47.28;;;;;;;;;;4841499;29;20079;-92
2023/12/12 10:15:02;;;;;;;543.13;54.88;;;;;;;;;;4820226;29;20048;-93
2023/12/12 10:17:37;;;;;;;373.85;40.85;;;;;;;;;;4803887;29;20554;-93
2023/12/12 10:20:05;;;;;;;634.60;63.97;;;;;;;;;;4811740;29;20942;-92
2023/12/12 10:22:31;;;;;;;593.75;58.40;;;;;;;;;;4805524;29;20659;-93
2023/12/12 10:25:10;;;;;;;603.40;60.95;;;;;;;;;;4805651;29;21005;-92
2023/12/12 10:27:40;;;;;;;574.15;57.65;;;;;;;;;;4809979;29;20036;-91
2023/12/12 10:30:07;;;;;;;369.50;38.17;;;;;;;;;;4835751;29;20032;-91
2023/12/12 10:32:37;;;;;;;567.97;57.35;;;;;;;;;;4828516;29;20083;-92
2023/12/12 10:35:04;;;;;;;502.45;50.60;;;;;;;;;;4827671;29;20048;-92
2023/12/12 10:37:30;;;;;;;601.40;60.65;;;;;;;;;;4817033;29;21020;-92
2023/12/12 10:40:13;;;;;;;400.85;44.75;;;;;;;;;;4856418;28;20087;-92
2023/12/12 10:42:40;;;;;;;537.55;56.60;;;;;;;;;;4858531;28;20036;-91
2023/12/12 10:45:09;;;;;;;443.70;43.55;;;;;;;;;;4838071;29;20963;-92
2023/12/12 10:47:39;;;;;;;513.05;50.95;;;;;;;;;;4827089;29;20141;-92
2023/12/12 10:50:09;;;;;;;450.30;43.88;;;;;;;;;;4826342;29;20466;-92
2023/12/12 10:52:37;;;;;;;415.85;39.20;;;;;;;;;;4821464;29;20052;-91
2023/12/12 10:55:05;;;;;;;442.30;40.97;;;;;;;;;;4830955;29;20059;-92
2023/12/12 10:57:32;;;;;;;457.85;42.72;;;;;;;;;;4838949;29;20990;-92
2023/12/12 10:59:59;;;;;;;449.52;43.17;;;;;;;;;;4827440;29;20051;-92
2023/12/12 11:02:31;;;;;;;663.83;67.87;;;;;;;;;;4831414;29;20051;-92
2023/12/12 11:04:59;;;;;;;659.42;66.13;;;;;;;;;;4816056;29;20294;-91
2023/12/12 11:07:26;;;;;;;545.08;53.33;;;;;;;;;;4800919;29;20920;-92
2023/12/12 11:09:53;;;;;;;530.10;50.97;;;;;;;;;;4813780;29;20040;-92
2023/12/12 11:12:20;;;;;;;568.65;54.85;;;;;;;;;;4825232;29;20044;-92
2023/12/12 11:14:47;;;;;;;533.38;52.08;;;;;;;;;;4823396;29;20044;-92
2023/12/12 11:17:14;;;;;;;342.75;33.28;;;;;;;;;;4853058;29;20044;-92
2023/12/12 11:19:43;;;;;;;291.58;29.65;;;;;;;;;;4854796;29;20883;-92
2023/12/12 11:22:30;;;;;;;355.17;33.67;;;;;;;;;;4850156;29;20036;-92
2023/12/12 11:25:02;;;;;;;524.53;49.25;;;;;;;;;;4829318;29;20119;-92
2023/12/12 11:27:30;;;;;;;501.13;47.30;;;;;;;;;;4833317;29;20032;-91
2023/12/12 11:29:58;;;;;;;523.45;48.42;;;;;;;;;;4803220;29;20890;-93
2023/12/12 11:32:26;;;;;;;581.10;55.92;;;;;;;;;;4826866;29;20032;-92
2023/12/12 11:34:52;;;;;;;544.65;51.03;;;;;;;;;;4815356;29;20048;-91
2023/12/12 11:37:19;;;;;;;560.28;53.85;;;;;;;;;;4816325;29;20494;-92
2023/12/12 11:39:52;;;;;;;457.85;43.05;;;;;;;;;;4838346;29;20160;-92
2023/12/12 11:42:21;;;;;;;524.13;48.88;;;;;;;;;;4863058;29;20044;-91
2023/12/12 11:44:54;;;;;;;259.75;25.88;;;;;;;;;;4813614;29;20048;-92
2023/12/12 11:47:27;;;;;;;566.45;53.97;;;;;;;;;;4849097;29;20044;-92
2023/12/12 11:50:18;;;;;;;510.05;49.55;;;;;;;;;;4829059;29;20067;-92
2023/12/12 11:52:45;;;;;;;538.30;52.17;;;;;;;;;;4830184;29;20053;-92
2023/12/12 11:55:20;;;;;;;513.58;49.70;;;;;;;;;;4811929;29;20040;-91
2023/12/12 11:57:46;;;;;;;535.10;52.63;;;;;;;;;;4811396;29;20059;-91
2023/12/12 12:00:14;;;;;;;517.22;49.70;;;;;;;;;;4814427;29;20044;-92
2023/12/12 12:02:41;;;;;;;529.53;51.20;;;;;;;;;;4819293;29;20040;-91
2023/12/12 12:05:07;;;;;;;536.25;53.00;;;;;;;;;;4822440;29;20860;-92
2023/12/12 12:07:38;;;;;;;543.95;52.67;;;;;;;;;;4804926;29;20036;-92
2023/12/12 12:10:06;;;;;;;601.20;59.00;;;;;;;;;;4814900;29;20056;-92
2023/12/12 12:12:32;;;;;;;551.88;54.13;;;;;;;;;;4801588;29;20048;-92
2023/12/12 12:15:06;;;;;;;657.90;67.40;;;;;;;;;;4809755;29;21033;-93
2023/12/12 12:17:34;;;;;;;493.38;48.33;;;;;;;;;;4809317;29;20219;-93
2023/12/12 12:20:01;;;;;;;455.00;43.65;;;;;;;;;;4817260;29;20048;-93
2023/12/12 12:22:28;;;;;;;422.27;42.65;;;;;;;;;;4821261;29;20924;-92
2023/12/12 12:24:56;;;;;;;485.15;48.40;;;;;;;;;;4831469;29;20048;-92
2023/12/12 12:27:24;;;;;;;431.58;41.58;;;;;;;;;;4817221;29;20044;-93
2023/12/12 12:29:59;;;;;;;360.08;35.30;;;;;;;;;;4827802;29;20133;-93
2023/12/12 12:32:26;;;;;;;258.73;27.33;;;;;;;;;;4834166;29;20040;-93
2023/12/12 12:35:09;;;;;;;203.80;24.63;;;;;;;;;;4846876;29;20049;-94
2023/12/12 12:37:36;;;;;;;173.85;21.25;;;;;;;;;;4842275;29;20048;-93
2023/12/12 12:40:11;;;;;;;276.75;28.90;;;;;;;;;;4838603;29;20483;-92
2023/12/12 12:42:38;;;;;;;260.23;29.23;;;;;;;;;;4846146;29;20119;-92
2023/12/12 12:45:06;;;;;;;215.98;24.92;;;;;;;;;;4839039;29;20044;-92
2023/12/12 12:47:33;;;;;;;365.38;35.42;;;;;;;;;;4824848;29;20470;-93
2023/12/12 12:50:01;;;;;;;353.58;35.78;;;;;;;;;;4845994;29;20045;-93
2023/12/12 12:52:28;;;;;;;348.63;36.00;;;;;;;;;;4839117;29;20163;-93
2023/12/12 12:54:55;;;;;;;407.17;39.90;;;;;;;;;;4826463;29;20044;-92
2023/12/12 12:57:23;;;;;;;437.50;42.72;;;;;;;;;;4833876;29;20044;-92
2023/12/12 12:59:50;;;;;;;389.88;40.83;;;;;;;;;;4827662;29;20044;-93
2023/12/12 13:02:17;;;;;;;385.00;42.17;;;;;;;;;;4845166;29;20029;-93
2023/12/12 13:04:43;;;;;;;386.40;41.50;;;;;;;;;;4827463;29;20052;-93
2023/12/12 13:07:10;;;;;;;278.35;31.73;;;;;;;;;;4845647;29;20037;-93
2023/12/12 13:09:37;;;;;;;291.27;32.60;;;;;;;;;;4850215;29;20047;-93
2023/12/12 13:12:04;;;;;;;346.23;36.05;;;;;;;;;;4830707;29;20048;-94
2023/12/12 13:14:31;;;;;;;330.90;35.42;;;;;;;;;;4848734;29;20150;-94
2023/12/12 13:16:58;;;;;;;340.83;37.65;;;;;;;;;;4818123;29;20059;-93
2023/12/12 13:19:26;;;;;;;273.98;31.23;;;;;;;;;;4835531;29;20589;-93
2023/12/12 13:21:54;;;;;;;316.00;35.90;;;;;;;;;;4841417;29;20044;-93
2023/12/12 13:24:24;;;;;;;366.02;39.63;;;;;;;;;;4850564;29;20904;-93
2023/12/12 13:26:51;;;;;;;360.55;37.47;;;;;;;;;;4865918;28;20032;-93
2023/12/12 13:29:19;;;;;;;122.50;20.50;;;;;;;;;;4901962;28;20044;-92
2023/12/12 13:31:46;;;;;;;184.73;27.23;;;;;;;;;;4885332;29;20212;-92
2023/12/12 13:34:12;;;;;;;228.63;31.00;;;;;;;;;;4859248;29;20056;-93
2023/12/12 13:36:41;;;;;;;289.65;35.50;;;;;;;;;;4857613;29;20049;-93
2023/12/12 13:39:14;;;;;;;164.98;25.42;;;;;;;;;;4869549;29;20436;-93
2023/12/12 13:41:46;;;;;;;206.45;28.55;;;;;;;;;;4857057;29;20037;-93
2023/12/12 13:44:13;;;;;;;187.18;26.33;;;;;;;;;;4865740;29;20098;-93
2023/12/12 13:46:40;;;;;;;213.52;29.27;;;;;;;;;;4866626;29;20120;-93
2023/12/12 13:49:06;;;;;;;245.40;31.95;;;;;;;;;;4860377;29;20051;-93
2023/12/12 13:51:33;;;;;;;262.48;32.60;;;;;;;;;;4845029;29;20036;-93
2023/12/12 13:54:13;;;;;;;192.65;27.98;;;;;;;;;;4864719;29;20055;-93
2023/12/12 13:56:40;;;;;;;219.95;29.92;;;;;;;;;;4856263;29;20053;-93
2023/12/12 13:59:07;;;;;;;403.38;44.33;;;;;;;;;;5012445;23;20564;-94
2023/12/12 14:01:34;;;;;;;258.83;32.58;;;;;;;;;;4925375;28;20043;-92
2023/12/12 14:04:02;;;;;;;184.35;25.25;;;;;;;;;;4926548;28;20039;-95
2023/12/12 14:06:30;;;;;;;217.57;29.75;;;;;;;;;;4912452;28;20099;-93
2023/12/12 14:08:57;;;;;;;220.55;32.97;;;;;;;;;;4915518;28;20051;-93
2023/12/12 14:11:26;;;;;;;317.95;37.83;;;;;;;;;;4919579;28;20038;-93
2023/12/12 14:13:53;;;;;;;258.15;35.55;;;;;;;;;;4904498;28;20801;-92
2023/12/12 14:16:20;;;;;;;285.45;38.22;;;;;;;;;;4904593;28;20836;-92
2023/12/12 14:18:55;;;;;;;277.10;34.53;;;;;;;;;;4901961;28;20047;-91
2023/12/12 14:21:22;;;;;;;351.80;40.80;;;;;;;;;;4918685;28;20034;-92
2023/12/12 14:23:49;;;;;;;272.10;33.40;;;;;;;;;;4918492;28;20054;-93
2023/12/12 14:26:17;;;;;;;283.45;34.47;;;;;;;;;;4911285;28;20043;-92
2023/12/12 14:28:48;;;;;;;280.15;33.03;;;;;;;;;;4895955;28;20042;-93
2023/12/12 14:31:16;;;;;;;281.77;34.13;;;;;;;;;;4874655;28;20046;-92
2023/12/12 14:33:44;;;;;;;282.67;34.70;;;;;;;;;;4911378;28;20045;-92
2023/12/12 14:36:11;;;;;;;333.45;36.33;;;;;;;;;;4891112;28;20143;-92
2023/12/12 14:38:37;;;;;;;427.80;44.42;;;;;;;;;;4904361;28;20447;-92
2023/12/12 14:41:04;;;;;;;401.77;43.95;;;;;;;;;;4905571;28;20039;-92
2023/12/12 14:43:32;;;;;;;368.70;41.25;;;;;;;;;;4916191;28;20197;-92
2023/12/12 14:45:59;;;;;;;359.40;40.65;;;;;;;;;;4896433;28;20153;-93
2023/12/12 14:48:29;;;;;;;351.70;41.05;;;;;;;;;;4910930;28;20899;-93
2023/12/12 14:51:00;;;;;;;390.33;44.58;;;;;;;;;;4889690;28;20074;-92
2023/12/12 14:53:27;;;;;;;399.58;45.03;;;;;;;;;;4872397;28;20050;-92
2023/12/12 14:55:54;;;;;;;289.15;37.13;;;;;;;;;;4910534;28;20039;-92
2023/12/12 14:58:21;;;;;;;198.80;31.17;;;;;;;;;;4899039;28;20039;-93
2023/12/12 15:00:51;;;;;;;287.73;33.83;;;;;;;;;;4932709;28;20050;-93
2023/12/12 15:03:18;;;;;;;206.32;31.30;;;;;;;;;;4901265;28;20153;-92
2023/12/12 15:05:47;;;;;;;154.90;27.17;;;;;;;;;;4902698;28;20045;-94
2023/12/12 15:08:14;;;;;;;199.32;27.20;;;;;;;;;;4892881;28;20043;-94
2023/12/12 15:10:41;;;;;;;185.60;26.73;;;;;;;;;;4922933;28;20043;-94
2023/12/12 15:13:10;;;;;;;148.90;26.23;;;;;;;;;;4918776;28;20042;-94
2023/12/12 15:15:42;;;;;;;135.10;24.75;;;;;;;;;;4937182;28;20053;-94
2023/12/12 15:18:10;;;;;;;230.10;31.77;;;;;;;;;;4923577;28;20035;-93
2023/12/12 15:20:37;;;;;;;215.50;30.52;;;;;;;;;;4940713;28;20114;-93
2023/12/12 15:23:04;;;;;;;207.05;30.23;;;;;;;;;;4945393;28;20133;-93
2023/12/12 15:25:31;;;;;;;239.20;32.05;;;;;;;;;;4904891;28;20149;-92
2023/12/12 15:28:10;;;;;;;189.77;28.23;;;;;;;;;;4929507;28;20054;-93
2023/12/12 15:30:53;;;;;;;291.48;37.47;;;;;;;;;;4930996;28;20888;-93
2023/12/12 15:33:21;;;;;;;186.88;28.80;;;;;;;;;;4918858;28;20078;-93
2023/12/12 15:35:50;;;;;;;109.97;23.42;;;;;;;;;;4915268;28;20039;-93
2023/12/12 15:38:17;;;;;;;159.98;27.25;;;;;;;;;;4946159;28;20039;-93
2023/12/12 15:40:44;;;;;;;206.00;29.83;;;;;;;;;;4931123;28;20331;-92
2023/12/12 15:43:15;;;;;;;172.45;29.70;;;;;;;;;;4917268;28;20054;-94
2023/12/12 15:45:42;;;;;;;190.75;31.15;;;;;;;;;;4913534;28;20524;-93
2023/12/12 15:48:09;;;;;;;292.98;37.45;;;;;;;;;;4898250;28;20045;-93
2023/12/12 15:50:36;;;;;;;315.83;40.78;;;;;;;;;;4896516;28;20840;-93
2023/12/12 15:53:03;;;;;;;347.20;42.63;;;;;;;;;;4895951;28;20674;-93
2023/12/12 15:55:30;;;;;;;309.70;38.63;;;;;;;;;;4893555;28;21005;-92
2023/12/12 15:57:57;;;;;;;448.33;51.60;;;;;;;;;;4892054;28;21037;-93
2023/12/12 16:00:25;;;;;;;285.48;37.75;;;;;;;;;;4886952;28;20054;-92
2023/12/12 16:03:16;;;;;;;187.88;31.58;;;;;;;;;;4929203;28;20106;-93
2023/12/12 16:06:18;;;;;;;98.00;24.83;;;;;;;;;;4923646;28;20039;-93
2023/12/12 16:08:52;;;;;;;202.13;30.05;;;;;;;;;;4926149;28;20078;-95
2023/12/12 16:11:31;;;;;;;204.32;30.15;;;;;;;;;;4915899;28;20053;-93
2023/12/12 16:14:04;;;;;;;152.15;27.33;;;;;;;;;;4954994;28;20047;-93
2023/12/12 16:16:31;;;;;;;168.93;29.05;;;;;;;;;;4904917;28;20512;-93
2023/12/12 16:18:58;;;;;;;418.73;50.95;;;;;;;;;;4923209;28;20043;-91
2023/12/12 16:21:24;;;;;;;208.75;32.33;;;;;;;;;;4935482;28;20042;-93
2023/12/12 16:23:51;;;;;;;179.45;31.50;;;;;;;;;;4913801;28;20049;-92
2023/12/12 16:26:18;;;;;;;645.47;73.55;;;;;;;;;;4897814;28;20757;-92
2023/12/12 16:28:45;;;;;;;648.20;75.78;;;;;;;;;;4886697;28;20477;-90
2023/12/12 16:31:12;;;;;;;696.33;83.60;;;;;;;;;;4882121;28;20031;-91
2023/12/12 16:33:39;;;;;;;760.63;91.45;;;;;;;;;;4836389;28;20210;-91
2023/12/12 16:36:06;;;;;;;717.92;86.32;;;;;;;;;;4869739;28;20910;-91
2023/12/12 16:38:33;;;;;;;759.95;93.50;;;;;;;;;;4869930;28;20041;-91
2023/12/12 16:41:00;;;;;;;737.50;93.13;;;;;;;;;;4857169;28;20533;-91
2023/12/12 16:43:26;;;;;;;799.90;103.07;;;;;;;;;;4858332;28;20046;-91
2023/12/12 16:45:54;;;;;;;642.17;85.32;;;;;;;;;;4834630;28;20031;-92
2023/12/12 16:48:20;;;;;;;662.60;87.00;;;;;;;;;;4873119;28;20038;-91
2023/12/12 16:50:47;;;;;;;664.70;89.75;;;;;;;;;;4844829;28;20059;-91
2023/12/12 16:53:14;;;;;;;730.83;97.22;;;;;;;;;;4878141;28;20046;-91
2023/12/12 16:55:41;;;;;;;739.63;99.28;;;;;;;;;;4858083;28;20031;-91
2023/12/12 16:58:08;;;;;;;759.75;107.03;;;;;;;;;;4857500;28;20039;-90
2023/12/12 17:00:35;;;;;;;792.65;111.88;;;;;;;;;;4836906;28;20053;-91
2023/12/12 17:03:03;;;;;;;666.05;95.03;;;;;;;;;;4861109;28;20842;-91
2023/12/12 17:05:30;;;;;;;727.13;102.43;;;;;;;;;;4842444;28;20035;-91
2023/12/12 17:07:57;;;;;;;670.03;98.40;;;;;;;;;;4854867;28;20392;-91
2023/12/12 17:10:24;;;;;;;650.25;91.70;;;;;;;;;;4852893;28;20038;-91
2023/12/12 17:12:51;;;;;;;885.78;118.70;;;;;;;;;;4868957;28;20049;-91
2023/12/12 17:15:18;;;;;;;720.80;96.53;;;;;;;;;;4850122;28;20047;-92
2023/12/12 17:17:45;;;;;;;689.75;90.95;;;;;;;;;;4860533;28;20050;-91
2023/12/12 17:20:12;;;;;;;859.88;108.68;;;;;;;;;;4884486;28;20034;-89
2023/12/12 17:22:39;;;;;;;892.00;113.93;;;;;;;;;;4852668;28;20891;-92
2023/12/12 17:25:06;;;;;;;808.80;101.18;;;;;;;;;;4824897;28;20237;-90
2023/12/12 17:27:34;;;;;;;901.53;112.95;;;;;;;;;;4861151;28;20118;-90
2023/12/12 17:30:02;;;;;;;686.60;88.32;;;;;;;;;;4857387;28;20045;-90
2023/12/12 17:32:29;;;;;;;612.22;77.80;;;;;;;;;;4848913;28;20117;-90
2023/12/12 17:34:59;;;;;;;752.17;92.88;;;;;;;;;;4858197;28;20966;-90
2023/12/12 17:37:29;;;;;;;708.57;89.30;;;;;;;;;;4881838;28;20035;-91
2023/12/12 17:39:55;;;;;;;696.10;87.75;;;;;;;;;;4868025;28;20130;-92